Time;durP1;ratioP1;P1;durP2;ratioP2;P2;SDS_P1;SDS_P2;PMS_P1;PMS_P2;Temp;Humidity;BMP_temperature;BMP_pressure;BME280_temperature;BME280_humidity;BME280_pressure;Samples;Min_cycle;Max_cycle;Signal;HPM_P1;HPM_P2
2023/09/08 08:57:52;;;;;;;7.82;2.90;;;;;;;24.96;62.64;100626.25;5019701;23;20051;-96
2023/09/08 09:00:18;;;;;;;4.32;2.53;;;;;;;25.13;60.50;100630.41;4954081;29;20040;-96
2023/09/08 09:02:48;;;;;;;7.10;2.33;;;;;;;25.29;58.82;100640.06;4938422;29;20035;-96
2023/09/08 09:05:14;;;;;;;7.32;2.38;;;;;;;25.67;59.69;100636.53;4934094;29;20089;-96
2023/09/08 09:07:43;;;;;;;3.78;2.20;;;;;;;25.96;56.12;100628.59;4933204;29;20032;-96
2023/09/08 09:10:10;;;;;;;4.32;2.00;;;;;;;26.52;55.68;100640.44;4935753;29;20020;-96
2023/09/08 09:12:39;;;;;;;7.82;2.75;;;;;;;26.99;53.51;100645.19;4935549;29;20020;-96
2023/09/08 09:15:05;;;;;;;4.05;2.10;;;;;;;27.63;49.94;100644.28;4934704;29;20032;-96
2023/09/08 09:17:34;;;;;;;6.90;2.63;;;;;;;27.63;49.70;100649.56;4937296;29;20076;-96
2023/09/08 09:20:19;;;;;;;6.00;3.83;;;;;;;27.80;49.61;100659.84;4934795;29;20051;-96
2023/09/08 09:22:45;;;;;;;7.63;4.25;;;;;;;28.21;49.45;100662.50;4935454;29;20035;-96
2023/09/08 09:25:32;;;;;;;5.38;3.88;;;;;;;28.24;51.15;100650.69;4936728;29;20024;-96
2023/09/08 09:27:59;;;;;;;3.03;2.08;;;;;;;28.47;48.29;100651.19;4937471;29;20100;-96
2023/09/08 09:30:25;;;;;;;10.18;3.80;;;;;;;28.38;47.28;100652.34;4938352;29;20149;-96
2023/09/08 09:33:05;;;;;;;4.97;2.83;;;;;;;28.81;47.77;100641.44;4935864;29;20016;-96
2023/09/08 09:35:49;;;;;;;8.60;3.35;;;;;;;28.76;46.85;100646.56;4935008;29;20031;-96
2023/09/08 09:38:18;;;;;;;6.35;3.00;;;;;;;29.27;46.48;100635.34;4937835;29;20029;-96
2023/09/08 09:40:45;;;;;;;12.55;2.97;;;;;;;29.17;47.70;100641.06;4935593;29;20041;-96
2023/09/08 09:43:11;;;;;;;4.95;2.47;;;;;;;29.51;46.45;100636.53;4933736;29;20035;-96
2023/09/08 09:45:39;;;;;;;12.45;2.42;;;;;;;29.94;43.29;100633.34;4934052;29;20029;-96
2023/09/08 09:48:06;;;;;;;5.90;3.17;;;;;;;30.01;42.88;100638.66;4934003;29;20036;-96
2023/09/08 09:50:34;;;;;;;8.43;4.75;;;;;;;30.12;42.07;100648.63;4933104;29;20048;-96
2023/09/08 09:53:14;;;;;;;8.55;3.28;;;;;;;29.73;42.98;100645.09;4934158;29;20064;-96
2023/09/08 09:55:41;;;;;;;6.75;2.53;;;;;;;29.60;43.78;100647.75;4931857;29;20091;-96
2023/09/08 09:58:10;;;;;;;3.35;2.00;;;;;;;29.94;44.02;100643.97;4933596;29;20020;-96
2023/09/08 10:00:37;;;;;;;4.43;1.88;;;;;;;30.27;43.97;100641.22;4934542;29;20036;-96
2023/09/08 10:03:04;;;;;;;3.15;1.48;;;;;;;30.18;43.02;100650.44;4934019;29;20024;-96
2023/09/08 10:05:33;;;;;;;5.35;1.90;;;;;;;30.60;43.55;100653.50;4934779;29;20029;-96
2023/09/08 10:08:00;;;;;;;4.35;1.85;;;;;;;30.58;41.15;100652.09;4932937;29;20035;-96
2023/09/08 10:10:30;;;;;;;8.65;2.28;;;;;;;30.79;39.99;100642.94;4934151;29;20032;-96
2023/09/08 10:13:03;;;;;;;3.85;1.73;;;;;;;30.96;40.79;100654.72;4931754;29;20024;-96
2023/09/08 10:15:31;;;;;;;1.90;1.60;;;;;;;30.80;42.13;100661.38;4928237;29;20087;-96
2023/09/08 10:17:57;;;;;;;4.90;1.80;;;;;;;31.12;41.50;100659.50;4928487;29;20024;-96
2023/09/08 10:20:28;;;;;;;6.57;1.90;;;;;;;31.10;43.36;100655.44;4927017;29;20039;-96
2023/09/08 10:23:27;;;;;;;5.35;2.10;;;;;;;31.24;41.12;100645.44;4927395;29;20028;-96
2023/09/08 10:25:59;;;;;;;3.65;2.17;;;;;;;31.17;41.97;100650.06;4929517;29;20049;-96
2023/09/08 10:28:26;;;;;;;3.53;2.17;;;;;;;31.35;42.91;100647.41;4931989;29;20028;-96
2023/09/08 10:30:54;;;;;;;4.28;1.60;;;;;;;31.77;41.90;100652.94;5017802;23;20055;-96
2023/09/08 10:36:02;;;;;;;6.15;2.00;;;;;;;31.51;41.91;100649.53;5056584;23;20039;-96
2023/09/08 10:38:32;;;;;;;2.83;1.67;;;;;;;31.35;41.45;100645.53;4996115;23;2653969;-96
2023/09/08 10:41:16;;;;;;;7.32;2.22;;;;;;;31.08;42.21;100650.31;4955937;28;20036;-96
2023/09/08 10:43:45;;;;;;;7.30;1.98;;;;;;;31.22;42.72;100647.53;4938212;29;20032;-96
2023/09/08 10:46:21;;;;;;;4.63;1.90;;;;;;;31.21;41.86;100651.22;4937392;29;20024;-96
2023/09/08 10:48:46;;;;;;;6.07;1.58;;;;;;;30.96;43.50;100646.72;4938954;29;20028;-96
2023/09/08 10:51:17;;;;;;;2.88;1.67;;;;;;;31.01;42.20;100652.22;4938826;29;20032;-96
2023/09/08 10:53:46;;;;;;;5.47;1.85;;;;;;;31.20;42.09;100654.94;4939077;29;20024;-96
2023/09/08 10:56:12;;;;;;;8.57;2.20;;;;;;;31.46;41.75;100660.06;4938078;29;20036;-96
2023/09/08 10:58:38;;;;;;;3.63;1.80;;;;;;;31.46;44.34;100660.06;4937234;29;20028;-96
2023/09/08 11:01:05;;;;;;;3.25;2.10;;;;;;;31.95;42.92;100652.16;4936999;29;20052;-96
2023/09/08 11:03:37;;;;;;;6.47;1.90;;;;;;;32.11;41.24;100654.19;4937046;29;20043;-96
2023/09/08 11:06:03;;;;;;;5.43;1.60;;;;;;;32.23;41.42;100648.91;4937823;29;20028;-96
2023/09/08 11:08:29;;;;;;;5.78;2.10;;;;;;;32.51;42.84;100644.84;4937381;29;20099;-96
2023/09/08 11:10:55;;;;;;;8.20;2.00;;;;;;;32.57;42.30;100644.75;4938161;29;20039;-96
2023/09/08 11:13:21;;;;;;;4.18;1.95;;;;;;;32.81;42.61;100645.59;4938347;29;20038;-96
2023/09/08 11:15:47;;;;;;;4.28;1.58;;;;;;;33.09;39.24;100638.78;4938468;29;20032;-96
2023/09/08 11:18:12;;;;;;;3.60;2.00;;;;;;;33.35;38.81;100628.69;4932398;29;20020;-96
2023/09/08 11:20:38;;;;;;;6.75;2.08;;;;;;;33.66;38.54;100633.66;4933868;29;20036;-96
2023/09/08 11:23:07;;;;;;;5.45;1.90;;;;;;;33.68;38.81;100633.44;4935805;29;20024;-96
2023/09/08 11:25:34;;;;;;;4.75;1.80;;;;;;;33.80;38.36;100630.69;4933942;29;20199;-96
2023/09/08 11:28:00;;;;;;;3.28;1.77;;;;;;;33.79;39.89;100639.78;4934497;29;20039;-96
2023/09/08 11:30:26;;;;;;;9.82;2.00;;;;;;;33.65;37.64;100629.38;4934051;29;20028;-96
2023/09/08 11:32:52;;;;;;;2.17;1.67;;;;;;;33.49;39.83;100629.25;4935674;29;20038;-96
2023/09/08 11:35:20;;;;;;;5.88;2.03;;;;;;;33.87;35.67;100623.34;4933755;29;20036;-96
2023/09/08 11:37:46;;;;;;;4.88;1.75;;;;;;;33.71;36.41;100621.44;4935860;29;20056;-96
2023/09/08 11:40:13;;;;;;;5.18;1.80;;;;;;;34.41;36.99;100633.72;4935768;29;20126;-96
2023/09/08 11:42:44;;;;;;;5.32;1.80;;;;;;;34.51;35.94;100626.69;4935508;29;20028;-96
2023/09/08 11:45:13;;;;;;;;;;;;;;;34.77;35.63;100629.81;4936389;29;20043;-96
2023/09/08 11:47:42;;;;;;;3.67;1.45;;;;;;;34.89;35.17;100627.84;4935427;29;20366;-96
2023/09/08 11:50:15;;;;;;;8.05;1.85;;;;;;;34.31;36.06;100634.38;4937625;29;20031;-96
2023/09/08 11:52:44;;;;;;;3.80;1.73;;;;;;;34.90;36.22;100626.81;4937053;29;20024;-96
2023/09/08 11:55:11;;;;;;;5.00;1.90;;;;;;;34.74;36.22;100633.78;4936441;29;20028;-96
2023/09/08 11:57:38;;;;;;;2.97;1.42;;;;;;;35.22;35.10;100623.53;4936097;29;20024;-96
2023/09/08 12:00:05;;;;;;;4.28;1.58;;;;;;;35.57;34.77;100622.38;4933459;29;20044;-96
2023/09/08 12:02:35;;;;;;;3.38;1.60;;;;;;;35.61;35.82;100612.78;4932902;29;20048;-96
2023/09/08 12:05:01;;;;;;;4.32;1.77;;;;;;;35.75;34.56;100622.09;4934393;29;20043;-96
2023/09/08 12:07:26;;;;;;;4.60;1.48;;;;;;;35.28;34.34;100630.59;4932579;29;20028;-96
2023/09/08 12:09:52;;;;;;;7.05;1.77;;;;;;;35.66;34.38;100631.66;4933963;29;20032;-96
2023/09/08 12:12:18;;;;;;;5.35;1.73;;;;;;;35.96;34.29;100631.19;4934365;29;20035;-96
2023/09/08 12:14:43;;;;;;;3.13;1.50;;;;;;;35.97;34.81;100634.66;4932210;29;20039;-96
2023/09/08 12:17:10;;;;;;;8.13;1.95;;;;;;;35.50;34.87;100627.13;4934722;29;20490;-96
2023/09/08 12:19:39;;;;;;;2.80;1.25;;;;;;;35.54;35.01;100622.88;4935563;29;20032;-96
2023/09/08 12:22:17;;;;;;;8.35;1.73;;;;;;;35.52;35.20;100622.31;4933962;29;20024;-96
2023/09/08 12:24:46;;;;;;;10.80;1.98;;;;;;;36.07;34.55;100615.16;4933086;29;20040;-96
2023/09/08 12:27:12;;;;;;;6.80;2.15;;;;;;;36.34;34.25;100620.56;4932841;29;20028;-96
2023/09/08 12:29:38;;;;;;;5.15;2.05;;;;;;;36.56;34.35;100623.19;4934382;29;20076;-96
2023/09/08 12:32:04;;;;;;;8.95;2.58;;;;;;;36.85;33.60;100615.63;4933421;29;20084;-96
2023/09/08 12:34:30;;;;;;;11.73;2.03;;;;;;;36.48;33.90;100621.75;4932677;29;20032;-96
2023/09/08 12:36:56;;;;;;;3.72;1.60;;;;;;;36.46;33.97;100613.16;4933797;29;20501;-96
2023/09/08 12:39:22;;;;;;;6.30;1.73;;;;;;;36.22;34.29;100618.84;4933144;29;20036;-96
2023/09/08 12:41:47;;;;;;;6.15;1.63;;;;;;;36.82;32.98;100611.56;4933975;29;20049;-96
2023/09/08 12:44:13;;;;;;;8.35;1.98;;;;;;;36.42;34.07;100609.34;4933937;29;20028;-96
2023/09/08 12:46:40;;;;;;;4.65;1.80;;;;;;;36.75;33.01;100610.16;4917709;29;20051;-96
2023/09/08 12:49:08;;;;;;;5.43;2.45;;;;;;;36.84;32.61;100606.72;4934870;29;20043;-96
2023/09/08 12:51:34;;;;;;;5.90;1.73;;;;;;;36.33;33.73;100610.88;4934508;29;20008;-96
2023/09/08 12:54:00;;;;;;;4.97;1.70;;;;;;;36.38;32.59;100610.91;4935710;29;20036;-96
2023/09/08 12:56:27;;;;;;;6.00;2.15;;;;;;;36.00;35.25;100610.81;4935606;29;20032;-96
2023/09/08 12:58:52;;;;;;;4.88;1.98;;;;;;;36.12;34.45;100608.00;4935071;29;20028;-96
2023/09/08 13:01:20;;;;;;;11.15;2.42;;;;;;;36.33;33.54;100605.50;4920586;29;20059;-96
2023/09/08 13:03:45;;;;;;;5.95;2.22;;;;;;;36.56;34.20;100599.78;4920895;29;20037;-97
2023/09/08 13:06:21;;;;;;;10.57;1.80;;;;;;;36.63;32.61;100597.72;4935340;29;20114;-96
2023/09/08 13:08:47;;;;;;;14.05;2.60;;;;;;;36.33;33.37;100597.44;4920172;29;20043;-96
2023/09/08 13:11:16;;;;;;;9.88;2.33;;;;;;;36.14;33.04;100599.66;4935754;29;20028;-96
2023/09/08 13:13:42;;;;;;;6.55;1.77;;;;;;;36.27;33.30;100609.22;4934753;29;20020;-96
2023/09/08 13:16:07;;;;;;;8.77;2.60;;;;;;;36.08;33.00;100601.47;4934198;29;20039;-96
2023/09/08 13:18:38;;;;;;;4.38;1.75;;;;;;;36.27;33.70;100595.78;4934080;29;20035;-96
2023/09/08 13:21:06;;;;;;;7.13;1.90;;;;;;;35.36;33.95;100583.72;4934620;29;20091;-96
2023/09/08 13:23:33;;;;;;;6.95;1.92;;;;;;;35.32;35.60;100583.41;4935827;29;20036;-96
2023/09/08 13:26:01;;;;;;;12.20;2.53;;;;;;;35.20;35.75;100584.59;4935874;29;20036;-96
2023/09/08 13:28:28;;;;;;;5.25;2.05;;;;;;;35.01;36.44;100578.66;4935583;29;20475;-96
2023/09/08 13:30:54;;;;;;;9.38;1.98;;;;;;;34.75;37.48;100572.94;4934647;29;20035;-96
2023/09/08 13:33:23;;;;;;;8.00;1.92;;;;;;;34.30;36.70;100576.47;4935588;29;20028;-96
2023/09/08 13:35:50;;;;;;;9.23;2.78;;;;;;;34.08;37.04;100574.50;4936453;29;20070;-96
2023/09/08 13:38:20;;;;;;;8.73;1.77;;;;;;;34.22;37.54;100572.34;4936924;29;20036;-96
2023/09/08 13:40:46;;;;;;;10.40;2.53;;;;;;;34.13;37.13;100572.97;4936560;29;20055;-96
2023/09/08 13:43:15;;;;;;;9.43;2.15;;;;;;;34.13;36.87;100565.75;4938269;29;20021;-96
2023/09/08 13:45:55;;;;;;;10.32;1.95;;;;;;;33.88;37.20;100564.19;4937850;29;20036;-96
2023/09/08 13:48:45;;;;;;;13.18;3.08;;;;;;;33.76;38.05;100566.13;4953854;29;20040;-96
2023/09/08 13:51:46;;;;;;;15.98;2.20;;;;;;;33.47;37.73;100563.38;4938128;29;20047;-96
2023/09/08 13:54:39;;;;;;;6.97;2.20;;;;;;;33.36;38.07;100555.38;4939520;29;20044;-96
2023/09/08 13:57:07;;;;;;;7.88;2.22;;;;;;;33.54;38.70;100552.53;4939886;29;20043;-96
2023/09/08 13:59:39;;;;;;;14.48;2.22;;;;;;;33.67;38.51;100549.59;4944381;29;20060;-96
2023/09/08 14:02:10;;;;;;;4.13;2.00;;;;;;;33.86;38.57;100546.75;4943617;29;20036;-96
2023/09/08 14:04:40;;;;;;;7.05;1.90;;;;;;;33.60;39.10;100551.63;4926395;29;20096;-96
2023/09/08 14:07:27;;;;;;;9.23;2.33;;;;;;;33.63;38.63;100548.47;4926539;29;20039;-96
2023/09/08 14:10:24;;;;;;;7.97;2.45;;;;;;;33.85;37.74;100543.28;4943177;29;20040;-96
2023/09/08 14:12:50;;;;;;;8.85;2.22;;;;;;;33.20;38.86;100541.69;4940287;29;20012;-96
2023/09/08 14:15:19;;;;;;;13.20;2.60;;;;;;;33.16;39.47;100539.72;4941191;29;20028;-96
2023/09/08 14:17:46;;;;;;;17.70;4.35;;;;;;;33.04;39.42;100534.38;4938989;29;20024;-96
2023/09/08 14:20:14;;;;;;;6.40;2.00;;;;;;;33.07;40.98;100535.78;4941353;29;20064;-96
2023/09/08 14:22:43;;;;;;;10.18;2.30;;;;;;;32.92;39.40;100538.91;4940016;29;20048;-96
2023/09/08 14:25:10;;;;;;;5.82;1.80;;;;;;;33.09;40.25;100539.03;4939996;29;20024;-96
2023/09/08 14:27:36;;;;;;;11.02;3.13;;;;;;;33.19;39.84;100529.38;4939708;29;20028;-96
2023/09/08 14:30:03;;;;;;;7.88;1.92;;;;;;;33.11;40.36;100526.25;4939276;29;20020;-96
2023/09/08 14:32:31;;;;;;;11.32;2.15;;;;;;;33.06;40.34;100524.25;4940290;29;20020;-96
2023/09/08 14:34:58;;;;;;;5.75;2.22;;;;;;;33.00;39.96;100519.84;4937906;29;20087;-96
2023/09/08 14:37:24;;;;;;;8.10;2.50;;;;;;;32.49;40.47;100524.84;4937883;29;20103;-96
2023/09/08 14:39:50;;;;;;;7.70;2.60;;;;;;;32.49;40.88;100521.34;4921932;29;20047;-96
2023/09/08 14:42:16;;;;;;;8.70;2.90;;;;;;;32.40;42.12;100527.00;4938083;29;20028;-96
2023/09/08 14:44:42;;;;;;;11.70;2.63;;;;;;;32.25;41.49;100526.63;4938412;29;20095;-96
2023/09/08 14:47:08;;;;;;;7.40;2.13;;;;;;;32.49;41.78;100529.34;4938518;29;20105;-96
2023/09/08 14:49:34;;;;;;;9.77;3.17;;;;;;;32.26;42.80;100536.25;4937753;29;20036;-96
2023/09/08 14:52:06;;;;;;;12.90;3.00;;;;;;;31.78;42.34;100526.47;4941051;29;20008;-96
2023/09/08 14:54:50;;;;;;;;;;;;;;;31.92;44.04;100530.59;4940635;29;20074;-96
2023/09/08 14:57:19;;;;;;;12.18;2.63;;;;;;;32.21;43.98;100525.44;4940883;29;19943;-96
2023/09/08 14:59:48;;;;;;;6.65;2.60;;;;;;;32.11;43.50;100528.69;4923749;29;20023;-96
2023/09/08 15:02:15;;;;;;;8.73;2.70;;;;;;;32.34;43.03;100525.25;4939139;29;20487;-96
2023/09/08 15:04:41;;;;;;;18.50;2.83;;;;;;;32.18;42.78;100531.25;4938226;29;20471;-96
2023/09/08 15:07:06;;;;;;;5.75;2.30;;;;;;;32.09;43.58;100532.63;4938170;29;20035;-96
2023/09/08 15:09:33;;;;;;;11.77;2.45;;;;;;;32.08;44.20;100534.47;4938158;29;20036;-96
2023/09/08 15:11:59;;;;;;;6.88;2.95;;;;;;;31.80;44.00;100532.41;4938381;29;20020;-96
2023/09/08 15:14:38;;;;;;;9.88;2.30;;;;;;;31.82;45.20;100522.28;4940246;29;20072;-96
2023/09/08 15:17:06;;;;;;;7.05;2.38;;;;;;;31.51;45.88;100528.66;4923300;29;20039;-96
2023/09/08 15:19:34;;;;;;;11.88;2.33;;;;;;;31.38;46.56;100518.91;4939100;29;20032;-96
2023/09/08 15:22:00;;;;;;;7.68;2.00;;;;;;;31.06;47.60;100523.59;4939353;29;20032;-96
2023/09/08 15:24:28;;;;;;;8.32;2.60;;;;;;;31.04;47.74;100521.13;4939276;29;20028;-96
2023/09/08 15:26:57;;;;;;;9.07;2.67;;;;;;;30.88;47.43;100529.72;4940907;29;20040;-96
2023/09/08 15:29:25;;;;;;;6.68;2.25;;;;;;;31.10;47.49;100522.94;4937948;29;20051;-96
2023/09/08 15:32:18;;;;;;;8.73;2.33;;;;;;;31.08;47.65;100522.34;4939217;29;20028;-96
2023/09/08 15:34:46;;;;;;;7.20;3.17;;;;;;;31.08;47.36;100514.34;4938446;29;20035;-96
2023/09/08 15:37:14;;;;;;;7.13;2.30;;;;;;;31.13;47.41;100517.16;4923292;29;20032;-96
2023/09/08 15:39:40;;;;;;;9.73;2.28;;;;;;;30.96;49.18;100512.63;4938061;29;20036;-96
2023/09/08 15:42:06;;;;;;;11.90;2.50;;;;;;;30.80;48.70;100503.31;4939617;29;20024;-96
2023/09/08 15:44:33;;;;;;;8.90;2.17;;;;;;;30.83;50.13;100503.75;4938254;29;20039;-96
2023/09/08 15:47:21;;;;;;;9.68;2.33;;;;;;;30.75;49.87;100508.50;4940072;29;20028;-96
2023/09/08 15:49:52;;;;;;;13.98;3.72;;;;;;;30.61;53.06;100508.63;4940838;29;20024;-96
2023/09/08 15:52:20;;;;;;;6.22;2.35;;;;;;;30.66;52.38;100508.78;4939538;29;20028;-96
2023/09/08 15:54:47;;;;;;;12.52;2.75;;;;;;;30.69;50.10;100508.34;4940433;29;20047;-96
2023/09/08 15:57:16;;;;;;;11.48;2.50;;;;;;;30.61;50.89;100513.97;4940076;29;20028;-96
2023/09/08 15:59:43;;;;;;;13.90;2.50;;;;;;;30.50;50.99;100514.66;4924828;29;20035;-96
2023/09/08 16:02:09;;;;;;;10.98;3.45;;;;;;;30.48;51.34;100508.72;4924411;29;20028;-96
2023/09/08 16:04:36;;;;;;;8.30;2.38;;;;;;;30.53;52.47;100511.56;4955302;29;20031;-96
2023/09/08 16:07:25;;;;;;;7.72;2.55;;;;;;;30.48;52.84;100516.72;4940728;29;20039;-96
2023/09/08 16:10:08;;;;;;;9.82;2.53;;;;;;;30.39;55.38;100510.84;4940987;29;20093;-96
2023/09/08 16:12:40;;;;;;;7.00;2.72;;;;;;;30.35;55.82;100514.97;4940882;29;20378;-96
2023/09/08 16:15:43;;;;;;;12.97;3.60;;;;;;;30.25;57.02;100520.78;4941272;29;20024;-96
2023/09/08 16:18:25;;;;;;;8.73;2.53;;;;;;;30.20;56.56;100517.13;4940270;29;20032;-96
2023/09/08 16:20:56;;;;;;;8.75;2.58;;;;;;;30.22;57.88;100515.88;4940474;29;20032;-96
2023/09/08 16:24:05;;;;;;;6.88;2.45;;;;;;;30.26;58.34;100516.28;4929344;29;20036;-96
2023/09/08 16:26:43;;;;;;;10.27;2.50;;;;;;;30.29;55.78;100522.00;4940174;29;20012;-96
2023/09/08 16:29:10;;;;;;;12.50;2.90;;;;;;;30.10;59.91;100516.78;4938963;29;20021;-96
2023/09/08 16:31:37;;;;;;;12.27;3.85;;;;;;;30.44;55.00;100518.22;4938095;29;20028;-96
2023/09/08 16:34:08;;;;;;;17.33;4.10;;;;;;;30.19;56.83;100520.78;4936048;29;20032;-96
2023/09/08 16:36:42;;;;;;;8.30;3.67;;;;;;;29.88;58.95;100518.97;4937425;29;20088;-96
2023/09/08 16:39:28;;;;;;;9.13;3.15;;;;;;;29.73;60.70;100512.06;4939293;29;20036;-96
2023/09/08 16:41:58;;;;;;;4.00;3.10;;;;;;;29.63;59.75;100517.00;4921047;29;20121;-96
2023/09/08 16:44:26;;;;;;;12.10;4.13;;;;;;;29.55;60.34;100520.72;4936194;29;20072;-96
2023/09/08 16:46:52;;;;;;;5.25;3.75;;;;;;;29.44;61.53;100524.84;4920301;29;20099;-96
2023/09/08 16:49:18;;;;;;;11.57;4.28;;;;;;;29.40;60.98;100522.81;4935049;29;20035;-96
2023/09/08 16:51:45;;;;;;;6.85;3.25;;;;;;;29.27;61.94;100515.72;4935620;29;20028;-96
2023/09/08 16:54:12;;;;;;;8.65;3.40;;;;;;;29.14;62.74;100519.22;4936668;29;20100;-96
2023/09/08 16:56:39;;;;;;;10.13;3.53;;;;;;;29.12;62.65;100518.63;4920541;29;20471;-96
2023/09/08 16:59:05;;;;;;;5.25;3.38;;;;;;;28.98;64.20;100515.13;4937064;29;20032;-96
2023/09/08 17:01:33;;;;;;;8.50;3.47;;;;;;;29.01;63.91;100514.72;4938523;29;20063;-96
2023/09/08 17:04:01;;;;;;;9.43;3.80;;;;;;;28.78;65.56;100514.34;4952662;29;20044;-96
2023/09/08 17:06:44;;;;;;;6.03;3.45;;;;;;;28.59;66.88;100505.38;4933636;29;20032;-96
2023/09/08 17:09:26;;;;;;;9.15;3.72;;;;;;;29.00;63.55;100501.66;4933669;29;20095;-96
2023/09/08 17:11:58;;;;;;;8.65;3.72;;;;;;;28.78;64.70;100511.69;4938047;29;20064;-96
2023/09/08 17:14:47;;;;;;;8.02;4.28;;;;;;;28.57;65.98;100510.88;4940106;29;20072;-96
2023/09/08 17:17:25;;;;;;;8.20;3.85;;;;;;;28.53;64.95;100507.00;4941365;29;20024;-96
2023/09/08 17:20:12;;;;;;;6.03;3.95;;;;;;;28.44;66.14;100518.81;4925538;29;20027;-96
2023/09/08 17:22:41;;;;;;;6.30;3.38;;;;;;;28.47;66.14;100520.28;4940033;29;20024;-96
2023/09/08 17:25:32;;;;;;;7.55;3.65;;;;;;;28.45;64.73;100517.81;4940533;29;20023;-96
